createdAt,value
2019-06-01T04:00:55.495Z,995.98
2019-06-01T04:01:55.666Z,996.02
2019-06-01T04:02:55.840Z,996.00
2019-06-01T04:03:56.018Z,996.01
2019-06-01T04:04:56.186Z,996.02
2019-06-01T04:05:56.359Z,996.00
2019-06-01T04:06:56.535Z,996.03
2019-06-01T04:07:56.709Z,996.03
2019-06-01T04:08:56.880Z,996.05
2019-06-01T04:09:57.051Z,996.02
2019-06-01T04:10:57.228Z,996.02
2019-06-01T04:11:57.402Z,996.01
2019-06-01T04:12:57.567Z,995.98
2019-06-01T04:13:57.742Z,996.04
2019-06-01T04:14:57.915Z,996.03
2019-06-01T04:15:58.083Z,996.00
2019-06-01T04:16:58.252Z,996.01
2019-06-01T04:17:58.426Z,996.01
2019-06-01T04:18:58.599Z,996.01
2019-06-01T04:19:58.769Z,996.02
2019-06-01T04:20:58.940Z,995.99
2019-06-01T04:21:59.110Z,996.01
2019-06-01T04:22:59.286Z,996.03
2019-06-01T04:23:59.455Z,996.01
2019-06-01T04:24:59.630Z,995.99
2019-06-01T04:25:59.800Z,996.03
2019-06-01T04:26:59.972Z,996.00
2019-06-01T04:28:00.144Z,996.01
2019-06-01T04:29:00.316Z,995.98
2019-06-01T04:30:00.487Z,995.98
2019-06-01T04:31:00.663Z,995.95
2019-06-01T04:32:00.846Z,995.94
2019-06-01T04:33:01.009Z,995.95
2019-06-01T04:34:01.406Z,995.96
2019-06-01T04:35:03.112Z,996.00
2019-06-01T04:36:02.682Z,995.96
2019-06-01T04:37:03.463Z,995.98
2019-06-01T04:38:02.942Z,995.99
2019-06-01T04:39:03.253Z,995.95
2019-06-01T04:40:03.314Z,995.96
2019-06-01T04:41:03.489Z,995.99
2019-06-01T04:42:03.478Z,995.99
2019-06-01T04:43:03.713Z,996.03
2019-06-01T04:44:03.771Z,996.01
2019-06-01T04:45:04.289Z,996.04
2019-06-01T04:46:04.016Z,996.06
2019-06-01T04:47:04.297Z,996.05
2019-06-01T04:48:04.340Z,996.05
2019-06-01T04:49:04.359Z,996.03
2019-06-01T04:50:04.534Z,996.01
2019-06-01T04:51:04.558Z,995.99
2019-06-01T04:52:04.651Z,996.04
2019-06-01T04:53:04.677Z,996.02
2019-06-01T04:54:04.856Z,996.06
2019-06-01T04:55:05.152Z,996.04
2019-06-01T04:56:05.001Z,996.01
2019-06-01T04:57:05.179Z,996.04
2019-06-01T04:58:05.348Z,996.05
2019-06-01T04:59:06.724Z,996.07
2019-06-01T05:00:15.220Z,996.06
2019-06-01T05:01:06.915Z,996.07
2019-06-01T05:02:07.252Z,996.08
2019-06-01T05:03:08.521Z,996.09
2019-06-01T05:04:07.114Z,996.12
2019-06-01T05:05:07.185Z,996.09
2019-06-01T05:06:07.176Z,996.10
2019-06-01T05:07:07.265Z,996.11
2019-06-01T05:08:07.238Z,996.08
2019-06-01T05:09:07.317Z,996.11
2019-06-01T05:10:07.650Z,996.10
2019-06-01T05:11:08.966Z,996.10
2019-06-01T05:12:07.782Z,996.12
2019-06-01T05:13:08.013Z,996.17
2019-06-01T05:14:08.138Z,996.15
2019-06-01T05:15:09.765Z,996.19
2019-06-01T05:16:08.460Z,996.18
2019-06-01T05:17:10.049Z,996.16
2019-06-01T05:18:09.966Z,996.13
2019-06-01T05:19:10.110Z,996.12
2019-06-01T05:20:10.340Z,996.20
2019-06-01T05:21:10.367Z,996.18
2019-06-01T05:22:10.491Z,996.21
2019-06-01T05:23:10.590Z,996.15
2019-06-01T05:24:10.646Z,996.17
2019-06-01T05:25:11.908Z,996.16
2019-06-01T05:26:10.946Z,996.13
2019-06-01T05:27:11.134Z,996.17
2019-06-01T05:28:11.211Z,996.18
2019-06-01T05:29:11.663Z,996.19
2019-06-01T05:30:11.547Z,996.16
2019-06-01T05:31:14.912Z,996.14
2019-06-01T05:32:12.517Z,996.14
2019-06-01T05:33:24.690Z,996.17
2019-06-01T05:34:11.859Z,996.23
2019-06-01T05:35:11.883Z,996.24
2019-06-01T05:36:12.078Z,996.20
2019-06-01T05:37:12.380Z,996.18
2019-06-01T05:38:12.345Z,996.18
2019-06-01T05:39:12.521Z,996.17
2019-06-01T05:40:12.696Z,996.18
2019-06-01T05:41:13.248Z,996.24
2019-06-01T05:42:13.039Z,996.23
2019-06-01T05:43:17.176Z,996.19
2019-06-01T05:44:13.384Z,996.16
2019-06-01T05:45:13.557Z,996.20
2019-06-01T05:46:14.059Z,996.24
2019-06-01T05:47:14.257Z,996.25
2019-06-01T05:48:22.920Z,996.12
2019-06-01T05:49:14.714Z,996.13
2019-06-01T05:50:14.612Z,996.13
2019-06-01T05:51:16.838Z,996.13
2019-06-01T05:52:14.755Z,996.11
2019-06-01T05:53:14.931Z,996.12
2019-06-01T05:54:15.095Z,996.17
2019-06-01T05:55:15.267Z,996.18
2019-06-01T05:56:16.758Z,996.21
2019-06-01T05:57:16.725Z,996.24
2019-06-01T05:58:17.128Z,996.28
2019-06-01T05:59:16.041Z,996.27
2019-06-01T06:00:17.197Z,996.28
2019-06-01T06:01:16.496Z,996.33
2019-06-01T06:02:17.477Z,996.29
2019-06-01T06:03:20.772Z,996.31
2019-06-01T06:04:17.549Z,996.27
2019-06-01T06:05:17.013Z,996.29
2019-06-01T06:06:17.777Z,996.32
2019-06-01T06:07:17.390Z,996.29
2019-06-01T06:08:18.028Z,996.30
2019-06-01T06:09:19.042Z,996.29
2019-06-01T06:10:18.513Z,996.25
2019-06-01T06:11:19.021Z,996.29
2019-06-01T06:12:19.465Z,996.27
2019-06-01T06:13:19.375Z,996.25
2019-06-01T06:14:20.673Z,996.28
2019-06-01T06:15:19.724Z,996.29
2019-06-01T06:16:20.736Z,996.27
2019-06-01T06:17:20.274Z,996.27
2019-06-01T06:18:19.828Z,996.26
2019-06-01T06:19:22.154Z,996.30
2019-06-01T06:20:20.146Z,996.28
2019-06-01T06:21:20.247Z,996.31
2019-06-01T06:22:20.333Z,996.28
2019-06-01T06:23:20.569Z,996.28
2019-06-01T06:24:20.601Z,996.27
2019-06-01T06:25:20.519Z,996.26
2019-06-01T06:26:22.356Z,996.26
2019-06-01T06:27:20.856Z,996.25
2019-06-01T06:28:21.029Z,996.25
2019-06-01T06:29:21.204Z,996.21
2019-06-01T06:30:21.383Z,996.18
2019-06-01T06:31:21.554Z,996.19
2019-06-01T06:32:21.726Z,996.17
2019-06-01T06:33:21.908Z,996.17
2019-06-01T06:34:22.086Z,996.19
2019-06-01T06:35:22.258Z,996.22
2019-06-01T06:36:22.437Z,996.24
2019-06-01T06:37:23.801Z,996.24
2019-06-01T06:38:23.955Z,996.26
2019-06-01T06:39:24.109Z,996.25
2019-06-01T06:40:24.199Z,996.24
2019-06-01T06:41:24.375Z,996.26
2019-06-01T06:42:24.431Z,996.26
2019-06-01T06:43:32.236Z,996.29
2019-06-01T06:44:24.775Z,996.25
2019-06-01T06:45:24.942Z,996.24
2019-06-01T06:46:24.845Z,996.24
2019-06-01T06:47:25.129Z,996.22
2019-06-01T06:48:25.286Z,996.25
2019-06-01T06:49:25.374Z,996.29
2019-06-01T06:50:25.637Z,996.28
2019-06-01T06:51:25.522Z,996.25
2019-06-01T06:52:25.704Z,996.25
2019-06-01T06:53:34.779Z,996.22
2019-06-01T06:54:26.035Z,996.19
2019-06-01T06:55:26.144Z,996.17
2019-06-01T06:56:26.203Z,996.18
2019-06-01T06:57:26.316Z,996.19
2019-06-01T06:58:26.581Z,996.22
2019-06-01T06:59:26.831Z,996.18
2019-06-01T07:00:27.010Z,996.19
2019-06-01T07:01:27.019Z,996.18
2019-06-01T07:02:27.110Z,996.21
2019-06-01T07:03:27.242Z,996.20
2019-06-01T07:04:27.563Z,996.16
2019-06-01T07:05:30.716Z,996.14
2019-06-01T07:06:27.755Z,996.12
2019-06-01T07:07:27.932Z,996.16
2019-06-01T07:08:28.107Z,996.17
2019-06-01T07:09:28.374Z,996.19
2019-06-01T07:10:28.413Z,996.10
2019-06-01T07:11:29.472Z,996.17
2019-06-01T07:12:28.809Z,996.10
2019-06-01T07:13:28.902Z,996.14
2019-06-01T07:14:29.082Z,996.12
2019-06-01T07:15:29.260Z,996.12
2019-06-01T07:16:29.428Z,996.11
2019-06-01T07:17:29.615Z,996.10
2019-06-01T07:18:29.782Z,996.12
2019-06-01T07:19:29.967Z,996.11
2019-06-01T07:20:30.170Z,996.15
2019-06-01T07:21:30.322Z,996.21
2019-06-01T07:22:30.496Z,996.21
2019-06-01T07:23:30.713Z,996.22
2019-06-01T07:24:32.063Z,996.25
2019-06-01T07:28:03.202Z,996.23
2019-06-01T07:29:03.376Z,996.28
2019-06-01T07:30:03.569Z,996.25
2019-06-01T07:31:03.729Z,996.26
2019-06-01T07:32:03.908Z,996.27
2019-06-01T07:33:04.076Z,996.26
2019-06-01T07:34:04.255Z,996.21
2019-06-01T07:35:04.422Z,996.24
2019-06-01T07:36:04.616Z,996.21
2019-06-01T07:37:04.776Z,996.23
2019-06-01T07:38:04.951Z,996.22
2019-06-01T07:39:05.129Z,996.23
2019-06-01T07:40:05.308Z,996.24
2019-06-01T07:41:05.483Z,996.21
2019-06-01T07:42:05.657Z,996.22
2019-06-01T07:43:05.823Z,996.21
2019-06-01T07:44:06.000Z,996.24
2019-06-01T07:45:06.175Z,996.22
2019-06-01T07:46:06.347Z,996.22
2019-06-01T07:47:06.516Z,996.18
2019-06-01T07:48:06.693Z,996.16
2019-06-01T07:49:06.867Z,996.16
2019-06-01T07:50:07.041Z,996.18
2019-06-01T07:51:07.224Z,996.18
2019-06-01T07:52:12.609Z,996.16
2019-06-01T07:53:07.582Z,996.16
2019-06-01T07:54:07.765Z,996.13
2019-06-01T07:55:07.936Z,996.09
2019-06-01T07:56:08.111Z,996.14
2019-06-01T07:57:08.302Z,996.10
2019-06-01T07:58:08.477Z,996.08
2019-06-01T07:59:08.634Z,996.09
2019-06-01T08:00:08.802Z,996.09
2019-06-01T08:01:08.982Z,996.05
2019-06-01T08:02:09.168Z,996.07
2019-06-01T08:03:09.332Z,996.10
2019-06-01T08:04:09.499Z,996.06
2019-06-01T08:05:09.697Z,996.04
2019-06-01T08:06:09.849Z,996.00
2019-06-01T08:07:10.023Z,996.04
2019-06-01T08:08:10.190Z,996.01
2019-06-01T08:09:10.377Z,996.05
2019-06-01T08:10:10.546Z,996.06
2019-06-01T08:11:10.727Z,996.05
2019-06-01T08:12:10.890Z,996.04
2019-06-01T08:13:11.062Z,996.04
2019-06-01T08:14:11.228Z,996.03
2019-06-01T08:15:11.402Z,996.04
2019-06-01T08:16:11.577Z,996.02
2019-06-01T08:17:11.751Z,996.06
2019-06-01T08:18:11.927Z,996.06
2019-06-01T08:19:12.100Z,996.07
2019-06-01T08:20:12.318Z,996.07
2019-06-01T08:21:12.451Z,996.10
2019-06-01T08:22:12.647Z,996.04
2019-06-01T08:23:12.801Z,996.03
2019-06-01T08:24:13.071Z,996.02
2019-06-01T08:25:13.157Z,996.02
2019-06-01T08:26:13.334Z,996.02
2019-06-01T08:27:13.504Z,996.00
2019-06-01T08:28:13.675Z,996.07
2019-06-01T08:29:13.851Z,996.06
2019-06-01T08:30:14.030Z,996.00
2019-06-01T08:31:14.200Z,996.01
2019-06-01T08:32:14.376Z,996.01
2019-06-01T08:33:14.586Z,996.00
2019-06-01T08:34:14.726Z,995.95
2019-06-01T08:35:14.899Z,995.96
2019-06-01T08:36:15.073Z,995.94
2019-06-01T08:37:15.268Z,995.90
2019-06-01T08:38:15.423Z,995.97
2019-06-01T08:39:15.598Z,995.96
2019-06-01T08:40:15.776Z,995.96
2019-06-01T08:41:15.952Z,995.92
2019-06-01T08:42:16.128Z,995.90
2019-06-01T08:43:16.301Z,995.91
2019-06-01T08:44:16.476Z,995.86
2019-06-01T08:45:16.652Z,995.78
2019-06-01T08:46:16.830Z,995.81
2019-06-01T08:47:17.003Z,995.79
2019-06-01T08:48:17.175Z,995.78
2019-06-01T08:49:17.354Z,995.76
2019-06-01T08:50:17.527Z,995.81
2019-06-01T08:51:17.705Z,995.74
2019-06-01T08:52:17.875Z,995.76
2019-06-01T08:53:18.073Z,995.74
2019-06-01T08:54:18.221Z,995.75
2019-06-01T08:55:18.391Z,995.71
2019-06-01T08:56:21.801Z,995.74
2019-06-01T08:57:18.741Z,995.74
2019-06-01T08:58:18.921Z,995.73
2019-06-01T08:59:19.092Z,995.72
2019-06-01T09:00:19.269Z,995.77
2019-06-01T09:01:19.444Z,995.70
2019-06-01T09:02:19.621Z,995.77
2019-06-01T09:03:19.795Z,995.72
2019-06-01T09:04:19.970Z,995.73
2019-06-01T09:05:24.328Z,995.70
2019-06-01T09:06:20.321Z,995.72
2019-06-01T09:07:20.513Z,995.72
2019-06-01T09:08:23.702Z,995.67
2019-06-01T09:09:20.842Z,995.70
2019-06-01T09:10:21.011Z,995.64
2019-06-01T09:11:21.191Z,995.67
2019-06-01T09:12:21.360Z,995.70
2019-06-01T09:13:21.533Z,995.66
2019-06-01T09:14:21.707Z,995.62
2019-06-01T09:15:21.883Z,995.68
2019-06-01T09:16:22.071Z,995.64
2019-06-01T09:17:22.236Z,995.63
2019-06-01T09:18:22.413Z,995.65
2019-06-01T09:19:22.592Z,995.64
2019-06-01T09:20:22.785Z,995.62
2019-06-01T09:21:22.959Z,995.60
2019-06-01T09:22:23.112Z,995.59
2019-06-01T09:23:23.295Z,995.58
2019-06-01T09:24:23.472Z,995.59
2019-06-01T09:25:23.645Z,995.53
2019-06-01T09:26:23.847Z,995.54
2019-06-01T09:27:23.997Z,995.54
2019-06-01T09:28:24.183Z,995.53
2019-06-01T09:29:25.734Z,995.49
2019-06-01T09:30:25.789Z,995.46
2019-06-01T09:31:26.136Z,995.46
2019-06-01T09:32:26.002Z,995.46
2019-06-01T09:33:26.058Z,995.42
2019-06-01T09:34:26.186Z,995.44
2019-06-01T09:35:46.289Z,995.42
2019-06-01T09:36:26.155Z,995.43
2019-06-01T09:37:26.443Z,995.37
2019-06-01T09:38:25.931Z,995.38
2019-06-01T09:39:26.668Z,995.40
2019-06-01T09:40:28.265Z,995.38
2019-06-01T09:41:26.476Z,995.41
2019-06-01T09:42:26.744Z,995.42
2019-06-01T09:43:26.819Z,995.43
2019-06-01T09:44:26.994Z,995.42
2019-06-01T09:45:27.810Z,995.43
2019-06-01T09:46:27.344Z,995.39
2019-06-01T09:47:27.531Z,995.45
2019-06-01T09:48:27.691Z,995.47
2019-06-01T09:49:29.075Z,995.46
2019-06-01T09:50:29.172Z,995.49
2019-06-01T09:51:29.447Z,995.53
2019-06-01T09:52:29.246Z,995.53
2019-06-01T09:53:29.361Z,995.50
2019-06-01T09:54:29.388Z,995.43
2019-06-01T09:55:30.621Z,995.47
2019-06-01T09:56:30.884Z,995.46
2019-06-01T09:57:29.844Z,995.43
2019-06-01T09:58:30.164Z,995.42
2019-06-01T09:59:29.784Z,995.54
2019-06-01T10:00:30.333Z,995.55
2019-06-01T10:01:30.126Z,995.57
2019-06-01T10:02:30.166Z,995.59
2019-06-01T10:03:30.334Z,995.52
2019-06-01T10:04:30.506Z,995.43
2019-06-01T10:05:30.682Z,995.56
2019-06-01T10:06:30.858Z,995.59
2019-06-01T10:07:31.038Z,995.67
2019-06-01T10:08:32.592Z,995.69
2019-06-01T10:09:31.562Z,995.78
2019-06-01T10:10:31.922Z,995.76
2019-06-01T10:11:32.615Z,995.77
2019-06-01T10:12:31.966Z,995.78
2019-06-01T10:13:33.370Z,995.79
2019-06-01T10:14:32.263Z,995.57
2019-06-01T10:15:32.513Z,995.47
2019-06-01T10:16:32.822Z,995.63
2019-06-01T10:17:33.289Z,995.46
2019-06-01T10:18:33.014Z,995.78
2019-06-01T10:19:33.141Z,995.77
2019-06-01T10:20:33.321Z,995.79
2019-06-01T10:21:33.958Z,995.81
2019-06-01T10:22:34.997Z,995.79
2019-06-01T10:23:34.479Z,995.59
2019-06-01T10:24:35.100Z,995.61
2019-06-01T10:25:34.501Z,995.78
2019-06-01T10:26:35.611Z,995.73
2019-06-01T10:27:34.583Z,995.74
2019-06-01T10:28:35.736Z,995.74
2019-06-01T10:29:34.938Z,995.77
2019-06-01T10:30:35.778Z,995.78
2019-06-01T10:31:35.293Z,995.76
2019-06-01T10:32:35.737Z,995.33
2019-06-01T10:33:37.324Z,995.62
2019-06-01T10:34:35.851Z,995.54
2019-06-01T10:35:36.956Z,995.72
2019-06-01T10:36:36.196Z,995.71
2019-06-01T10:37:37.579Z,995.71
2019-06-01T10:38:37.391Z,995.75
2019-06-01T10:39:37.203Z,995.92
2019-06-01T10:40:37.624Z,996.16
2019-06-01T10:41:37.448Z,995.27
2019-06-01T10:42:38.023Z,996.00
2019-06-01T10:43:37.720Z,996.18
2019-06-01T10:44:41.834Z,996.16
2019-06-01T10:45:37.853Z,995.34
2019-06-01T10:46:38.116Z,996.44
2019-06-01T10:47:38.440Z,996.48
2019-06-01T10:48:38.376Z,996.62
2019-06-01T10:49:38.556Z,996.82
2019-06-01T10:50:38.738Z,996.10
2019-06-01T10:51:40.234Z,996.68
2019-06-01T10:52:40.399Z,995.19
2019-06-01T10:53:41.250Z,995.51
2019-06-01T10:54:40.268Z,996.79
2019-06-01T10:55:40.309Z,997.07
2019-06-01T10:56:40.583Z,996.14
2019-06-01T10:57:40.613Z,995.62
2019-06-01T10:58:58.806Z,995.18
2019-06-01T10:59:40.587Z,997.31
2019-06-01T11:00:47.765Z,997.36
2019-06-01T11:01:40.964Z,997.40
2019-06-01T11:02:40.996Z,997.24
2019-06-01T11:03:41.106Z,997.45
2019-06-01T11:04:41.288Z,997.41
2019-06-01T11:05:41.462Z,997.37
2019-06-01T11:06:47.763Z,997.49
2019-06-01T11:07:43.026Z,997.56
2019-06-01T11:08:43.168Z,997.55
2019-06-01T11:09:43.255Z,997.46
2019-06-01T11:10:43.228Z,997.31
2019-06-01T11:11:43.181Z,997.13
2019-06-01T11:12:43.235Z,997.25
2019-06-01T11:13:43.274Z,997.08
2019-06-01T11:14:43.429Z,997.07
2019-06-01T11:15:43.353Z,996.91
2019-06-01T11:16:44.047Z,996.79
2019-06-01T11:17:43.642Z,996.57
2019-06-01T11:18:43.833Z,995.43
2019-06-01T11:19:44.014Z,996.08
2019-06-01T11:20:44.192Z,996.60
2019-06-01T11:21:44.378Z,996.54
2019-06-01T11:22:44.557Z,996.46
2019-06-01T11:23:46.558Z,996.39
2019-06-01T11:24:44.925Z,996.30
2019-06-01T11:25:45.112Z,996.37
2019-06-01T11:26:45.292Z,996.27
2019-06-01T11:27:45.476Z,996.23
2019-06-01T11:28:45.656Z,996.19
2019-06-01T11:29:50.993Z,996.17
2019-06-01T11:30:46.022Z,996.24
2019-06-01T11:31:46.207Z,996.15
2019-06-01T11:32:46.390Z,996.06
2019-06-01T11:33:46.580Z,996.00
2019-06-01T11:34:46.770Z,996.05
2019-06-01T11:35:46.953Z,995.97
2019-06-01T11:37:04.966Z,995.94
2019-06-01T11:37:47.317Z,995.84
2019-06-01T11:38:47.500Z,995.93
2019-06-01T11:39:47.684Z,995.86
2019-06-01T11:40:47.868Z,995.75
2019-06-01T11:41:48.110Z,995.48
2019-06-01T11:42:48.250Z,995.06
2019-06-01T11:43:48.420Z,995.69
2019-06-01T11:44:48.607Z,994.81
2019-06-01T11:45:48.790Z,994.89
2019-06-01T11:46:48.977Z,994.97
2019-06-01T11:47:49.165Z,994.86
2019-06-01T11:48:49.342Z,995.66
2019-06-01T11:49:49.527Z,995.45
2019-06-01T11:50:49.711Z,995.83
2019-06-01T11:51:49.897Z,995.80
2019-06-01T11:52:50.080Z,995.78
2019-06-01T11:53:50.266Z,995.47
2019-06-01T11:54:50.446Z,994.82
2019-06-01T11:55:50.648Z,995.28
2019-06-01T11:56:50.816Z,995.27
2019-06-01T11:57:51.001Z,995.18
2019-06-01T11:58:51.184Z,995.12
2019-06-01T11:59:51.368Z,995.10
2019-06-01T12:00:51.566Z,994.71
2019-06-01T12:01:51.812Z,994.65
2019-06-01T12:02:51.921Z,994.88
2019-06-01T12:03:52.103Z,995.17
2019-06-01T12:04:52.288Z,995.12
2019-06-01T12:05:52.470Z,995.15
2019-06-01T12:06:52.652Z,994.91
2019-06-01T12:07:52.838Z,994.95
2019-06-01T12:08:53.021Z,994.88
2019-06-01T12:09:53.201Z,994.59
2019-06-01T12:10:53.390Z,994.63
2019-06-01T12:11:53.582Z,994.60
2019-06-01T12:12:53.753Z,994.63
2019-06-01T12:13:53.943Z,994.95
2019-06-01T12:14:54.124Z,995.12
2019-06-01T12:15:54.305Z,995.01
2019-06-01T12:16:54.489Z,994.85
2019-06-01T12:17:54.675Z,994.68
2019-06-01T12:18:54.854Z,994.70
2019-06-01T12:19:55.042Z,995.00
2019-06-01T12:20:55.222Z,994.94
2019-06-01T12:21:55.403Z,994.92
2019-06-01T12:22:55.593Z,994.91
2019-06-01T12:23:55.770Z,994.91
2019-06-01T12:24:55.955Z,994.89
2019-06-01T12:25:56.137Z,994.86
2019-06-01T12:26:56.325Z,994.78
2019-06-01T12:27:56.506Z,994.84
2019-06-01T12:28:56.689Z,994.82
2019-06-01T12:29:56.884Z,994.50
2019-06-01T12:30:57.060Z,994.44
2019-06-01T12:31:57.242Z,994.53
2019-06-01T12:32:57.423Z,994.49
2019-06-01T12:33:57.631Z,994.73
2019-06-01T12:34:57.789Z,994.53
2019-06-01T12:35:58.004Z,994.48
2019-06-01T12:36:58.179Z,994.61
2019-06-01T12:38:06.217Z,994.68
2019-06-01T12:38:58.521Z,994.59
2019-06-01T12:39:58.703Z,994.63
2019-06-01T12:40:58.882Z,994.62
2019-06-01T12:41:59.075Z,994.57
2019-06-01T12:42:59.263Z,994.61
2019-06-01T12:43:59.432Z,994.39
2019-06-01T12:44:59.615Z,994.50
2019-06-01T12:46:07.393Z,994.27
2019-06-01T12:46:59.978Z,994.27
2019-06-01T12:48:00.161Z,994.24
2019-06-01T12:49:00.347Z,994.46
2019-06-01T12:50:00.534Z,994.43
2019-06-01T12:51:00.720Z,994.47
2019-06-01T12:52:00.916Z,994.43
2019-06-01T12:53:01.091Z,994.48
2019-06-01T12:54:01.270Z,994.44
2019-06-01T12:55:01.451Z,994.47
2019-06-01T12:56:01.633Z,994.43
2019-06-01T12:57:01.816Z,994.43
2019-06-01T12:58:02.006Z,994.39
2019-06-01T12:59:02.198Z,994.36
2019-06-01T13:00:02.366Z,994.38
2019-06-01T13:01:02.930Z,994.26
2019-06-01T13:02:02.731Z,994.33
2019-06-01T13:03:07.465Z,994.34
2019-06-01T13:04:03.103Z,994.35
2019-06-01T13:05:03.284Z,994.35
2019-06-01T13:06:03.488Z,994.34
2019-06-01T13:07:03.656Z,994.33
2019-06-01T13:08:03.841Z,994.32
2019-06-01T13:09:04.026Z,994.29
2019-06-01T13:10:04.214Z,994.28
2019-06-01T13:11:04.397Z,994.26
2019-06-01T13:12:04.579Z,994.24
2019-06-01T13:13:04.767Z,994.15
2019-06-01T13:14:04.952Z,994.27
2019-06-01T13:15:05.144Z,994.28
2019-06-01T13:16:05.324Z,994.02
2019-06-01T13:17:07.752Z,994.27
2019-06-01T13:18:05.695Z,994.25
2019-06-01T13:19:05.883Z,994.20
2019-06-01T13:20:06.067Z,994.18
2019-06-01T13:21:06.252Z,994.14
2019-06-01T13:22:06.435Z,994.15
2019-06-01T13:23:06.622Z,994.17
2019-06-01T13:24:06.807Z,994.19
2019-06-01T13:25:06.995Z,994.17
2019-06-01T13:26:07.180Z,994.16
2019-06-01T13:27:07.363Z,994.13
2019-06-01T13:28:07.549Z,994.14
2019-06-01T13:29:07.734Z,994.11
2019-06-01T13:30:07.920Z,994.13
2019-06-01T13:31:08.101Z,994.12
2019-06-01T13:32:08.297Z,994.14
2019-06-01T13:33:08.484Z,994.12
2019-06-01T13:34:08.669Z,994.15
2019-06-01T13:35:08.851Z,994.17
2019-06-01T13:36:09.047Z,994.12
2019-06-01T13:37:09.224Z,994.11
2019-06-01T13:38:12.080Z,994.11
2019-06-01T13:39:09.597Z,994.04
2019-06-01T13:40:09.781Z,994.06
2019-06-01T13:41:09.966Z,994.01
2019-06-01T13:42:10.153Z,994.02
2019-06-01T13:43:10.341Z,994.03
2019-06-01T13:44:10.529Z,994.02
2019-06-01T13:45:10.715Z,994.01
2019-06-01T13:46:10.917Z,993.97
2019-06-01T13:47:11.097Z,993.98
2019-06-01T13:48:11.281Z,993.91
2019-06-01T13:49:11.488Z,993.91
2019-06-01T13:50:11.658Z,993.89
2019-06-01T13:51:11.847Z,993.88
2019-06-01T13:52:12.031Z,993.87
2019-06-01T13:53:12.216Z,993.85
2019-06-01T13:54:12.405Z,993.85
2019-06-01T13:55:12.588Z,993.85
2019-06-01T13:56:12.779Z,993.89
2019-06-01T13:57:12.964Z,993.84
2019-06-01T13:58:13.154Z,993.83
2019-06-01T13:59:13.346Z,993.83
2019-06-01T14:00:15.838Z,993.86
2019-06-01T14:01:13.711Z,993.84
2019-06-01T14:02:13.921Z,993.82
2019-06-01T14:03:14.086Z,993.87
2019-06-01T14:04:14.273Z,993.83
2019-06-01T14:05:14.460Z,993.80
2019-06-01T14:06:14.647Z,993.62
2019-06-01T14:07:14.837Z,993.80
2019-06-01T14:08:28.164Z,993.85
2019-06-01T14:09:15.204Z,993.79
2019-06-01T14:10:15.394Z,993.77
2019-06-01T14:11:15.581Z,993.78
2019-06-01T14:12:15.763Z,993.76
2019-06-01T14:13:15.950Z,993.80
2019-06-01T14:14:16.134Z,993.78
2019-06-01T14:15:16.337Z,993.76
2019-06-01T14:16:16.505Z,993.76
2019-06-01T14:17:16.696Z,993.73
2019-06-01T14:18:16.883Z,993.75
2019-06-01T14:19:17.069Z,993.75
2019-06-01T14:20:17.263Z,993.74
2019-06-01T14:21:17.453Z,993.75
2019-06-01T14:22:17.626Z,993.66
2019-06-01T14:23:17.824Z,993.71
2019-06-01T14:24:18.018Z,993.69
2019-06-01T14:25:18.262Z,993.77
2019-06-01T14:26:18.376Z,993.72
2019-06-01T14:27:18.568Z,993.73
2019-06-01T14:28:18.784Z,993.66
2019-06-01T14:29:18.947Z,993.66
2019-06-01T14:30:19.133Z,993.65
2019-06-01T14:31:19.316Z,993.73
2019-06-01T14:32:19.502Z,993.68
2019-06-01T14:33:19.689Z,993.67
2019-06-01T14:34:19.874Z,993.66
2019-06-01T14:35:20.059Z,993.66
2019-06-01T14:36:20.249Z,993.57
2019-06-01T14:37:20.434Z,993.57
2019-06-01T14:38:20.618Z,993.58
2019-06-01T14:39:20.809Z,993.57
2019-06-01T14:40:21.003Z,993.56
2019-06-01T14:41:21.184Z,993.53
2019-06-01T14:42:21.364Z,993.66
2019-06-01T14:43:21.553Z,993.73
2019-06-01T14:44:21.736Z,993.68
2019-06-01T14:45:21.923Z,993.69
2019-06-01T14:46:22.117Z,993.69
2019-06-01T14:47:22.296Z,993.64
2019-06-01T14:48:22.482Z,993.69
2019-06-01T14:49:22.671Z,993.69
2019-06-01T14:50:22.857Z,993.67
2019-06-01T14:51:23.043Z,993.65
2019-06-01T14:52:23.230Z,993.61
2019-06-01T14:53:23.413Z,993.62
2019-06-01T14:54:23.611Z,993.60
2019-06-01T14:55:23.785Z,993.59
2019-06-01T14:56:23.970Z,993.63
2019-06-01T14:57:24.155Z,993.61
2019-06-01T14:58:24.339Z,993.61
2019-06-01T14:59:24.523Z,993.54
2019-06-01T15:00:24.710Z,993.60
2019-06-01T15:01:32.664Z,993.58
2019-06-01T15:02:25.076Z,993.53
2019-06-01T15:03:25.272Z,993.54
2019-06-01T15:04:25.460Z,993.50
2019-06-01T15:05:25.641Z,993.53
2019-06-01T15:06:25.830Z,993.51
2019-06-01T15:07:26.013Z,993.45
2019-06-01T15:08:26.199Z,993.47
2019-06-01T15:09:26.387Z,993.49
2019-06-01T15:10:26.574Z,993.47
2019-06-01T15:11:26.755Z,993.51
2019-06-01T15:12:26.946Z,993.34
2019-06-01T15:13:27.127Z,993.32
2019-06-01T15:14:27.316Z,993.40
2019-06-01T15:15:27.505Z,993.41
2019-06-01T15:16:27.683Z,993.44
2019-06-01T15:17:27.869Z,993.42
2019-06-01T15:18:28.056Z,993.42
2019-06-01T15:19:28.238Z,993.42
2019-06-01T15:20:28.423Z,993.39
2019-06-01T15:21:28.607Z,993.36
2019-06-01T15:22:28.790Z,993.32
2019-06-01T15:23:28.979Z,993.33
2019-06-01T15:24:29.163Z,993.37
2019-06-01T15:25:29.349Z,993.32
2019-06-01T15:26:29.532Z,993.29
2019-06-01T15:27:29.717Z,993.27
2019-06-01T15:28:29.905Z,993.23
2019-06-01T15:29:30.088Z,993.21
2019-06-01T15:30:30.274Z,993.27
2019-06-01T15:31:30.468Z,993.24
2019-06-01T15:32:30.646Z,993.29
2019-06-01T15:33:30.824Z,993.34
2019-06-01T15:34:31.012Z,993.32
2019-06-01T15:35:31.191Z,993.34
2019-06-01T15:36:31.392Z,993.32
2019-06-01T15:37:31.568Z,993.33
2019-06-01T15:38:31.744Z,993.31
2019-06-01T15:39:31.929Z,993.30
2019-06-01T15:40:32.111Z,993.29
2019-06-01T15:41:32.299Z,993.27
2019-06-01T15:42:32.486Z,993.28
2019-06-01T15:43:32.666Z,993.25
2019-06-01T15:44:32.850Z,993.25
2019-06-01T15:45:33.040Z,993.24
2019-06-01T15:46:33.226Z,993.21
2019-06-01T15:47:33.408Z,993.24
2019-06-01T15:48:33.594Z,993.22
2019-06-01T15:49:33.774Z,993.22
2019-06-01T15:50:33.956Z,993.25
2019-06-01T15:51:34.140Z,993.21
2019-06-01T15:52:34.325Z,993.21
2019-06-01T15:53:34.509Z,993.18
2019-06-01T15:54:34.699Z,993.14
2019-06-01T15:55:34.877Z,993.19
2019-06-01T15:56:35.058Z,993.18
2019-06-01T15:57:35.241Z,993.13
2019-06-01T15:58:51.418Z,993.11
2019-06-01T15:59:35.607Z,993.09
2019-06-01T16:00:35.793Z,993.10
2019-06-01T16:01:35.978Z,993.03
2019-06-01T16:02:36.161Z,993.03
2019-06-01T16:03:36.344Z,993.01
2019-06-01T16:04:36.526Z,993.04
2019-06-01T16:05:36.711Z,993.03
2019-06-01T16:06:36.896Z,992.99
2019-06-01T16:07:37.079Z,993.00
2019-06-01T16:08:37.264Z,993.00
2019-06-01T16:09:42.839Z,992.97
2019-06-01T16:10:37.684Z,992.99
2019-06-01T16:11:37.817Z,992.98
2019-06-01T16:12:38.041Z,992.97
2019-06-01T16:13:38.177Z,992.98
2019-06-01T16:14:38.356Z,992.99
2019-06-01T16:15:38.538Z,992.96
2019-06-01T16:16:38.741Z,992.95
2019-06-01T16:17:38.908Z,992.94
2019-06-01T16:18:39.090Z,992.97
2019-06-01T16:19:39.271Z,992.96
2019-06-01T16:20:39.453Z,992.94
2019-06-01T16:21:39.633Z,992.93
2019-06-01T16:22:39.821Z,992.92
2019-06-01T16:23:49.892Z,992.92
2019-06-01T16:24:40.186Z,992.92
2019-06-01T16:25:40.367Z,992.92
2019-06-01T16:26:40.553Z,992.91
2019-06-01T16:27:40.750Z,992.94
2019-06-01T16:28:40.921Z,992.90
2019-06-01T16:29:41.101Z,992.92
2019-06-01T16:30:41.282Z,992.97
2019-06-01T16:31:41.469Z,992.97
2019-06-01T16:32:41.649Z,992.99
2019-06-01T16:33:41.831Z,992.95